Terminal Aerodrome Forecast
Issued by NWS

Home | Current Version | Previous Version | Text Only | Print | Product List | Glossary On
Versions: 1 2 3 4 5 6 7 8 9 10 11 12 13 14 15 16 17 18 19 20 21 22 23 24 25 26 27 28 29 30 31 32 33 34 35
000
FTUS43 KDLH 171200 CCA
TAFHIB
TAF COR
KHIB 171222Z 1712/1812 VRB04KT P6SM BKN100
     FM171500 02006KT P6SM VCSH SCT012 OVC070
      TEMPO 1715/1718 BKN009
     FM172000 04008KT P6SM BKN050
     FM180200 11008KT P6SM SCT015 BKN035=

USA.gov is the U.S. government's official web portal to all federal, state and local government web resources and services.